sensor_id;sensor_type;location;lat;lon;timestamp;pressure;altitude;pressure_sealevel;temperature;humidity
19236;BME280;9752;54.270;12.470;2022-10-22T00:00:32;101493.41;;;9.51;100.00
19236;BME280;9752;54.270;12.470;2022-10-22T00:05:35;101501.47;;;9.32;100.00
19236;BME280;9752;54.270;12.470;2022-10-22T00:10:38;101505.19;;;9.36;100.00
19236;BME280;9752;54.270;12.470;2022-10-22T00:15:40;101513.66;;;9.45;100.00
19236;BME280;9752;54.270;12.470;2022-10-22T00:20:42;101521.22;;;9.54;100.00
19236;BME280;9752;54.270;12.470;2022-10-22T00:25:45;101515.41;;;9.68;100.00
19236;BME280;9752;54.270;12.470;2022-10-22T00:30:47;101523.16;;;9.68;100.00
19236;BME280;9752;54.270;12.470;2022-10-22T00:35:48;101535.56;;;9.84;100.00
19236;BME280;9752;54.270;12.470;2022-10-22T00:40:51;101537.53;;;9.99;100.00
19236;BME280;9752;54.270;12.470;2022-10-22T00:45:53;101555.22;;;10.28;100.00
19236;BME280;9752;54.270;12.470;2022-10-22T00:50:57;101566.84;;;10.57;100.00
19236;BME280;9752;54.270;12.470;2022-10-22T00:56:01;101579.00;;;10.81;100.00
19236;BME280;9752;54.270;12.470;2022-10-22T01:01:05;101576.13;;;11.02;100.00
19236;BME280;9752;54.270;12.470;2022-10-22T01:06:11;101587.47;;;11.27;100.00
19236;BME280;9752;54.270;12.470;2022-10-22T01:11:21;101580.19;;;11.35;100.00
19236;BME280;9752;54.270;12.470;2022-10-22T01:16:31;101577.31;;;11.44;100.00
19236;BME280;9752;54.270;12.470;2022-10-22T01:21:41;101577.97;;;11.53;100.00
19236;BME280;9752;54.270;12.470;2022-10-22T01:26:56;101585.28;;;11.59;100.00
19236;BME280;9752;54.270;12.470;2022-10-22T01:32:06;101590.81;;;11.63;100.00
19236;BME280;9752;54.270;12.470;2022-10-22T01:37:11;101602.19;;;11.65;100.00
19236;BME280;9752;54.270;12.470;2022-10-22T01:42:14;101595.41;;;11.67;100.00
19236;BME280;9752;54.270;12.470;2022-10-22T01:47:23;101604.91;;;11.67;100.00
19236;BME280;9752;54.270;12.470;2022-10-22T01:52:38;101608.50;;;11.69;100.00
19236;BME280;9752;54.270;12.470;2022-10-22T01:57:51;101600.59;;;11.67;100.00
19236;BME280;9752;54.270;12.470;2022-10-22T02:03:00;101611.31;;;11.72;100.00
19236;BME280;9752;54.270;12.470;2022-10-22T02:08:08;101605.31;;;11.73;100.00
19236;BME280;9752;54.270;12.470;2022-10-22T02:13:14;101599.66;;;11.79;100.00
19236;BME280;9752;54.270;12.470;2022-10-22T02:18:21;101607.75;;;11.83;100.00
19236;BME280;9752;54.270;12.470;2022-10-22T02:23:25;101622.22;;;11.91;100.00
19236;BME280;9752;54.270;12.470;2022-10-22T02:28:31;101628.00;;;12.01;100.00
19236;BME280;9752;54.270;12.470;2022-10-22T02:33:41;101626.63;;;12.06;100.00
19236;BME280;9752;54.270;12.470;2022-10-22T02:38:44;101630.53;;;11.99;100.00
19236;BME280;9752;54.270;12.470;2022-10-22T02:43:50;101625.13;;;11.96;100.00
19236;BME280;9752;54.270;12.470;2022-10-22T02:48:53;101620.91;;;11.98;100.00
19236;BME280;9752;54.270;12.470;2022-10-22T02:53:55;101620.44;;;12.04;100.00
19236;BME280;9752;54.270;12.470;2022-10-22T02:58:57;101641.06;;;12.14;100.00
19236;BME280;9752;54.270;12.470;2022-10-22T03:04:00;101638.78;;;12.19;100.00
19236;BME280;9752;54.270;12.470;2022-10-22T03:09:02;101627.66;;;12.21;100.00
19236;BME280;9752;54.270;12.470;2022-10-22T03:14:03;101624.75;;;12.17;100.00
19236;BME280;9752;54.270;12.470;2022-10-22T03:19:07;101622.13;;;12.03;100.00
19236;BME280;9752;54.270;12.470;2022-10-22T03:24:11;101618.44;;;12.00;100.00
19236;BME280;9752;54.270;12.470;2022-10-22T03:29:14;101615.34;;;12.05;100.00
19236;BME280;9752;54.270;12.470;2022-10-22T03:34:17;101618.97;;;12.21;100.00
19236;BME280;9752;54.270;12.470;2022-10-22T03:39:19;101631.97;;;12.34;100.00
19236;BME280;9752;54.270;12.470;2022-10-22T03:44:22;101652.59;;;12.44;100.00
19236;BME280;9752;54.270;12.470;2022-10-22T03:49:25;101657.53;;;12.53;100.00
19236;BME280;9752;54.270;12.470;2022-10-22T03:54:27;101658.75;;;12.58;100.00
19236;BME280;9752;54.270;12.470;2022-10-22T03:59:33;101660.63;;;12.61;100.00
19236;BME280;9752;54.270;12.470;2022-10-22T04:04:36;101657.25;;;12.62;100.00
19236;BME280;9752;54.270;12.470;2022-10-22T04:09:38;101660.22;;;12.55;100.00
19236;BME280;9752;54.270;12.470;2022-10-22T04:14:40;101659.72;;;12.47;100.00
19236;BME280;9752;54.270;12.470;2022-10-22T04:19:43;101663.44;;;12.50;100.00
19236;BME280;9752;54.270;12.470;2022-10-22T04:24:44;101663.63;;;12.54;100.00
19236;BME280;9752;54.270;12.470;2022-10-22T04:29:46;101660.94;;;12.52;100.00
19236;BME280;9752;54.270;12.470;2022-10-22T04:34:49;101652.53;;;12.56;100.00
19236;BME280;9752;54.270;12.470;2022-10-22T04:39:51;101655.75;;;12.65;100.00
19236;BME280;9752;54.270;12.470;2022-10-22T04:44:52;101661.34;;;12.72;100.00
19236;BME280;9752;54.270;12.470;2022-10-22T04:49:55;101677.13;;;12.75;100.00
19236;BME280;9752;54.270;12.470;2022-10-22T04:54:57;101684.66;;;12.83;100.00
19236;BME280;9752;54.270;12.470;2022-10-22T04:59:59;101688.38;;;12.87;100.00
19236;BME280;9752;54.270;12.470;2022-10-22T05:05:02;101688.38;;;12.87;100.00
19236;BME280;9752;54.270;12.470;2022-10-22T05:10:04;101687.47;;;12.86;100.00
19236;BME280;9752;54.270;12.470;2022-10-22T05:15:07;101678.75;;;12.86;100.00
19236;BME280;9752;54.270;12.470;2022-10-22T05:20:11;101673.16;;;12.80;100.00
19236;BME280;9752;54.270;12.470;2022-10-22T05:25:13;101672.03;;;12.76;100.00
19236;BME280;9752;54.270;12.470;2022-10-22T05:30:15;101669.81;;;12.69;100.00
19236;BME280;9752;54.270;12.470;2022-10-22T05:35:18;101671.03;;;12.61;100.00
19236;BME280;9752;54.270;12.470;2022-10-22T05:40:19;101673.53;;;12.46;100.00
19236;BME280;9752;54.270;12.470;2022-10-22T05:45:21;101673.00;;;12.38;100.00
19236;BME280;9752;54.270;12.470;2022-10-22T05:50:24;101674.69;;;12.24;100.00
19236;BME280;9752;54.270;12.470;2022-10-22T05:55:25;101667.13;;;12.02;100.00
19236;BME280;9752;54.270;12.470;2022-10-22T06:00:27;101670.13;;;11.95;100.00
19236;BME280;9752;54.270;12.470;2022-10-22T06:05:33;101668.13;;;11.79;100.00
19236;BME280;9752;54.270;12.470;2022-10-22T06:10:36;101667.69;;;11.73;100.00
19236;BME280;9752;54.270;12.470;2022-10-22T06:15:38;101672.63;;;11.82;100.00
19236;BME280;9752;54.270;12.470;2022-10-22T06:20:41;101692.34;;;12.03;100.00
19236;BME280;9752;54.270;12.470;2022-10-22T06:25:54;101703.69;;;12.17;100.00
19236;BME280;9752;54.270;12.470;2022-10-22T06:30:57;101712.41;;;12.31;100.00
19236;BME280;9752;54.270;12.470;2022-10-22T06:36:05;101716.44;;;12.26;100.00
19236;BME280;9752;54.270;12.470;2022-10-22T06:41:08;101728.47;;;12.37;100.00
19236;BME280;9752;54.270;12.470;2022-10-22T06:46:12;101735.78;;;12.43;100.00
19236;BME280;9752;54.270;12.470;2022-10-22T06:51:15;101750.09;;;12.49;100.00
19236;BME280;9752;54.270;12.470;2022-10-22T06:56:19;101763.34;;;12.66;100.00
19236;BME280;9752;54.270;12.470;2022-10-22T07:01:23;101776.56;;;12.82;100.00
19236;BME280;9752;54.270;12.470;2022-10-22T07:06:27;101789.16;;;13.01;100.00
19236;BME280;9752;54.270;12.470;2022-10-22T07:11:35;101785.72;;;13.02;100.00
19236;BME280;9752;54.270;12.470;2022-10-22T07:16:38;101790.66;;;13.11;100.00
19236;BME280;9752;54.270;12.470;2022-10-22T07:21:42;101785.13;;;13.20;100.00
19236;BME280;9752;54.270;12.470;2022-10-22T07:26:44;101789.66;;;13.22;100.00
19236;BME280;9752;54.270;12.470;2022-10-22T07:31:46;101782.22;;;13.28;100.00
19236;BME280;9752;54.270;12.470;2022-10-22T07:36:49;101793.78;;;13.45;100.00
19236;BME280;9752;54.270;12.470;2022-10-22T07:41:50;101794.84;;;13.76;100.00
19236;BME280;9752;54.270;12.470;2022-10-22T07:46:52;101789.56;;;13.61;100.00
19236;BME280;9752;54.270;12.470;2022-10-22T07:51:55;101791.72;;;13.81;100.00
19236;BME280;9752;54.270;12.470;2022-10-22T07:56:57;101799.78;;;13.99;100.00
19236;BME280;9752;54.270;12.470;2022-10-22T08:01:59;101799.63;;;14.11;100.00
19236;BME280;9752;54.270;12.470;2022-10-22T08:07:02;101796.28;;;14.27;100.00
19236;BME280;9752;54.270;12.470;2022-10-22T08:12:04;101782.88;;;14.21;100.00
19236;BME280;9752;54.270;12.470;2022-10-22T08:17:06;101774.31;;;14.23;100.00
19236;BME280;9752;54.270;12.470;2022-10-22T08:22:09;101774.50;;;14.27;100.00
19236;BME280;9752;54.270;12.470;2022-10-22T08:27:11;101769.88;;;14.22;100.00
19236;BME280;9752;54.270;12.470;2022-10-22T08:32:13;101751.28;;;14.31;100.00
19236;BME280;9752;54.270;12.470;2022-10-22T08:37:16;101749.88;;;14.36;100.00
19236;BME280;9752;54.270;12.470;2022-10-22T08:42:42;101739.78;;;14.42;100.00
19236;BME280;9752;54.270;12.470;2022-10-22T08:48:08;101726.28;;;14.50;100.00
19236;BME280;9752;54.270;12.470;2022-10-22T08:53:16;101703.28;;;14.57;100.00
19236;BME280;9752;54.270;12.470;2022-10-22T08:58:22;101687.06;;;14.63;100.00
19236;BME280;9752;54.270;12.470;2022-10-22T09:03:36;101665.53;;;14.67;100.00
19236;BME280;9752;54.270;12.470;2022-10-22T09:08:45;101647.91;;;14.63;100.00
19236;BME280;9752;54.270;12.470;2022-10-22T09:13:48;101630.75;;;14.83;100.00
19236;BME280;9752;54.270;12.470;2022-10-22T09:18:57;101613.41;;;15.00;100.00
19236;BME280;9752;54.270;12.470;2022-10-22T09:24:10;101595.78;;;15.12;100.00
19236;BME280;9752;54.270;12.470;2022-10-22T09:29:18;101584.13;;;15.22;100.00
19236;BME280;9752;54.270;12.470;2022-10-22T09:34:21;101568.84;;;15.30;100.00
19236;BME280;9752;54.270;12.470;2022-10-22T09:39:26;101560.53;;;15.37;100.00
19236;BME280;9752;54.270;12.470;2022-10-22T09:44:32;101538.72;;;15.20;100.00
19236;BME280;9752;54.270;12.470;2022-10-22T09:49:35;101531.25;;;15.44;100.00
19236;BME280;9752;54.270;12.470;2022-10-22T09:54:41;101524.16;;;15.25;100.00
19236;BME280;9752;54.270;12.470;2022-10-22T09:59:46;101524.22;;;15.59;100.00
19236;BME280;9752;54.270;12.470;2022-10-22T10:04:52;101515.56;;;15.95;100.00
19236;BME280;9752;54.270;12.470;2022-10-22T10:09:56;101514.09;;;16.36;100.00
19236;BME280;9752;54.270;12.470;2022-10-22T10:15:03;101504.00;;;16.81;100.00
19236;BME280;9752;54.270;12.470;2022-10-22T10:20:19;101473.44;;;16.62;100.00
19236;BME280;9752;54.270;12.470;2022-10-22T10:25:34;101448.63;;;16.73;100.00
19236;BME280;9752;54.270;12.470;2022-10-22T10:30:46;101420.94;;;16.98;100.00
19236;BME280;9752;54.270;12.470;2022-10-22T10:35:53;101407.41;;;17.29;100.00
19236;BME280;9752;54.270;12.470;2022-10-22T10:41:07;101380.38;;;17.09;100.00
19236;BME280;9752;54.270;12.470;2022-10-22T10:46:17;101360.69;;;17.00;100.00
19236;BME280;9752;54.270;12.470;2022-10-22T10:51:33;101349.16;;;18.01;100.00
19236;BME280;9752;54.270;12.470;2022-10-22T10:56:41;101332.16;;;18.14;100.00
19236;BME280;9752;54.270;12.470;2022-10-22T11:01:55;101315.50;;;18.62;100.00
19236;BME280;9752;54.270;12.470;2022-10-22T11:07:04;101289.31;;;18.89;100.00
19236;BME280;9752;54.270;12.470;2022-10-22T11:12:14;101273.41;;;18.60;100.00
19236;BME280;9752;54.270;12.470;2022-10-22T11:17:19;101277.31;;;18.71;100.00
19236;BME280;9752;54.270;12.470;2022-10-22T11:22:27;101276.66;;;17.82;100.00
19236;BME280;9752;54.270;12.470;2022-10-22T11:27:36;101276.91;;;18.35;100.00
19236;BME280;9752;54.270;12.470;2022-10-22T11:32:41;101272.03;;;18.46;100.00
19236;BME280;9752;54.270;12.470;2022-10-22T11:37:45;101254.13;;;18.84;100.00
19236;BME280;9752;54.270;12.470;2022-10-22T11:42:52;101257.16;;;18.46;100.00
19236;BME280;9752;54.270;12.470;2022-10-22T11:47:57;101253.94;;;18.29;100.00
19236;BME280;9752;54.270;12.470;2022-10-22T11:53:01;101257.38;;;18.28;100.00
19236;BME280;9752;54.270;12.470;2022-10-22T11:58:26;101259.09;;;18.04;100.00
19236;BME280;9752;54.270;12.470;2022-10-22T12:03:38;101276.81;;;17.85;100.00
19236;BME280;9752;54.270;12.470;2022-10-22T12:08:41;101269.84;;;17.42;100.00
19236;BME280;9752;54.270;12.470;2022-10-22T12:14:01;101276.66;;;17.16;100.00
19236;BME280;9752;54.270;12.470;2022-10-22T12:19:10;101282.13;;;17.22;100.00
19236;BME280;9752;54.270;12.470;2022-10-22T12:24:14;101288.16;;;17.20;100.00
19236;BME280;9752;54.270;12.470;2022-10-22T12:29:20;101292.19;;;16.71;100.00
19236;BME280;9752;54.270;12.470;2022-10-22T12:34:23;101296.91;;;16.58;100.00
19236;BME280;9752;54.270;12.470;2022-10-22T12:39:26;101302.13;;;17.41;100.00
19236;BME280;9752;54.270;12.470;2022-10-22T12:44:31;101292.03;;;17.73;100.00
19236;BME280;9752;54.270;12.470;2022-10-22T12:49:35;101284.03;;;17.91;100.00
19236;BME280;9752;54.270;12.470;2022-10-22T12:54:39;101281.75;;;17.13;100.00
19236;BME280;9752;54.270;12.470;2022-10-22T12:59:45;101288.41;;;17.26;100.00
19236;BME280;9752;54.270;12.470;2022-10-22T13:05:14;101287.31;;;17.00;100.00
19236;BME280;9752;54.270;12.470;2022-10-22T13:10:24;101292.69;;;16.43;100.00
19236;BME280;9752;54.270;12.470;2022-10-22T13:15:36;101300.31;;;15.61;100.00
19236;BME280;9752;54.270;12.470;2022-10-22T13:20:49;101319.78;;;15.14;100.00
19236;BME280;9752;54.270;12.470;2022-10-22T13:25:59;101329.31;;;15.14;100.00
19236;BME280;9752;54.270;12.470;2022-10-22T13:31:14;101330.88;;;15.45;100.00
19236;BME280;9752;54.270;12.470;2022-10-22T13:36:17;101329.44;;;15.33;100.00
19236;BME280;9752;54.270;12.470;2022-10-22T13:41:20;101334.69;;;14.99;100.00
19236;BME280;9752;54.270;12.470;2022-10-22T13:46:24;101337.13;;;14.96;100.00
19236;BME280;9752;54.270;12.470;2022-10-22T13:51:29;101339.94;;;14.50;100.00
19236;BME280;9752;54.270;12.470;2022-10-22T13:56:34;101347.28;;;14.40;100.00
19236;BME280;9752;54.270;12.470;2022-10-22T14:01:37;101357.22;;;13.83;100.00
19236;BME280;9752;54.270;12.470;2022-10-22T14:06:39;101368.97;;;13.92;100.00
19236;BME280;9752;54.270;12.470;2022-10-22T14:11:41;101371.72;;;13.63;100.00
19236;BME280;9752;54.270;12.470;2022-10-22T14:16:44;101386.22;;;13.28;100.00
19236;BME280;9752;54.270;12.470;2022-10-22T14:21:45;101398.72;;;13.34;100.00
19236;BME280;9752;54.270;12.470;2022-10-22T14:26:48;101410.94;;;13.50;100.00
19236;BME280;9752;54.270;12.470;2022-10-22T14:31:51;101421.09;;;13.45;100.00
19236;BME280;9752;54.270;12.470;2022-10-22T14:36:53;101429.28;;;13.37;100.00
19236;BME280;9752;54.270;12.470;2022-10-22T14:41:54;101436.78;;;13.17;100.00
19236;BME280;9752;54.270;12.470;2022-10-22T14:46:58;101446.00;;;13.40;100.00
19236;BME280;9752;54.270;12.470;2022-10-22T14:51:59;101452.97;;;13.26;100.00
19236;BME280;9752;54.270;12.470;2022-10-22T14:57:01;101461.97;;;13.32;100.00
19236;BME280;9752;54.270;12.470;2022-10-22T15:02:05;101471.78;;;13.36;100.00
19236;BME280;9752;54.270;12.470;2022-10-22T15:07:07;101468.97;;;13.33;100.00
19236;BME280;9752;54.270;12.470;2022-10-22T15:12:08;101467.31;;;13.20;100.00
19236;BME280;9752;54.270;12.470;2022-10-22T15:17:11;101474.28;;;13.06;100.00
19236;BME280;9752;54.270;12.470;2022-10-22T15:22:14;101477.38;;;12.85;100.00
19236;BME280;9752;54.270;12.470;2022-10-22T15:27:16;101491.03;;;12.68;100.00
19236;BME280;9752;54.270;12.470;2022-10-22T15:32:19;101497.00;;;12.52;100.00
19236;BME280;9752;54.270;12.470;2022-10-22T15:37:21;101510.09;;;12.40;100.00
19236;BME280;9752;54.270;12.470;2022-10-22T15:42:23;101512.03;;;12.29;100.00
19236;BME280;9752;54.270;12.470;2022-10-22T15:47:26;101528.94;;;12.23;100.00
19236;BME280;9752;54.270;12.470;2022-10-22T15:52:30;101553.72;;;12.18;100.00
19236;BME280;9752;54.270;12.470;2022-10-22T15:57:32;101571.63;;;12.00;100.00
19236;BME280;9752;54.270;12.470;2022-10-22T16:02:35;101577.78;;;11.88;100.00
19236;BME280;9752;54.270;12.470;2022-10-22T16:07:36;101581.75;;;11.83;100.00
19236;BME280;9752;54.270;12.470;2022-10-22T16:12:38;101585.84;;;11.80;100.00
19236;BME280;9752;54.270;12.470;2022-10-22T16:17:43;101591.22;;;11.69;100.00
19236;BME280;9752;54.270;12.470;2022-10-22T16:22:48;101599.56;;;11.52;100.00
19236;BME280;9752;54.270;12.470;2022-10-22T16:27:50;101604.03;;;11.29;100.00
19236;BME280;9752;54.270;12.470;2022-10-22T16:32:53;101612.59;;;11.03;100.00
19236;BME280;9752;54.270;12.470;2022-10-22T16:37:54;101623.78;;;10.90;100.00
19236;BME280;9752;54.270;12.470;2022-10-22T16:42:56;101628.75;;;10.75;100.00
19236;BME280;9752;54.270;12.470;2022-10-22T16:47:59;101634.88;;;10.64;100.00
19236;BME280;9752;54.270;12.470;2022-10-22T16:53:01;101641.53;;;10.61;100.00
19236;BME280;9752;54.270;12.470;2022-10-22T16:58:03;101645.34;;;10.42;100.00
19236;BME280;9752;54.270;12.470;2022-10-22T17:03:07;101653.13;;;10.30;100.00
19236;BME280;9752;54.270;12.470;2022-10-22T17:08:09;101666.50;;;10.25;100.00
19236;BME280;9752;54.270;12.470;2022-10-22T17:13:11;101672.16;;;10.31;100.00
19236;BME280;9752;54.270;12.470;2022-10-22T17:18:14;101676.47;;;10.08;100.00
19236;BME280;9752;54.270;12.470;2022-10-22T17:23:16;101673.66;;;10.05;100.00
19236;BME280;9752;54.270;12.470;2022-10-22T17:28:17;101689.69;;;10.11;100.00
19236;BME280;9752;54.270;12.470;2022-10-22T17:33:20;101705.59;;;10.16;100.00
19236;BME280;9752;54.270;12.470;2022-10-22T17:38:22;101714.56;;;10.31;100.00
19236;BME280;9752;54.270;12.470;2022-10-22T17:43:24;101731.28;;;10.47;100.00
19236;BME280;9752;54.270;12.470;2022-10-22T17:48:27;101749.63;;;10.72;100.00
19236;BME280;9752;54.270;12.470;2022-10-22T17:53:28;101752.28;;;10.73;100.00
19236;BME280;9752;54.270;12.470;2022-10-22T17:58:30;101758.06;;;10.81;100.00
19236;BME280;9752;54.270;12.470;2022-10-22T18:03:34;101766.88;;;10.83;100.00
19236;BME280;9752;54.270;12.470;2022-10-22T18:08:35;101775.88;;;10.77;100.00
19236;BME280;9752;54.270;12.470;2022-10-22T18:13:37;101781.44;;;10.93;100.00
19236;BME280;9752;54.270;12.470;2022-10-22T18:18:44;101789.31;;;10.94;100.00
19236;BME280;9752;54.270;12.470;2022-10-22T18:23:46;101803.81;;;11.03;100.00
19236;BME280;9752;54.270;12.470;2022-10-22T18:28:48;101803.81;;;11.03;100.00
19236;BME280;9752;54.270;12.470;2022-10-22T18:33:51;101811.91;;;10.96;100.00
19236;BME280;9752;54.270;12.470;2022-10-22T18:38:54;101816.34;;;11.08;100.00
19236;BME280;9752;54.270;12.470;2022-10-22T18:43:57;101821.19;;;11.16;100.00
19236;BME280;9752;54.270;12.470;2022-10-22T18:49:01;101827.28;;;11.16;100.00
19236;BME280;9752;54.270;12.470;2022-10-22T18:54:03;101834.50;;;11.08;100.00
19236;BME280;9752;54.270;12.470;2022-10-22T18:59:04;101834.84;;;11.01;100.00
19236;BME280;9752;54.270;12.470;2022-10-22T19:04:08;101847.81;;;11.13;100.00
19236;BME280;9752;54.270;12.470;2022-10-22T19:09:10;101842.94;;;11.06;100.00
19236;BME280;9752;54.270;12.470;2022-10-22T19:14:13;101850.41;;;11.01;100.00
19236;BME280;9752;54.270;12.470;2022-10-22T19:19:20;101861.13;;;11.06;100.00
19236;BME280;9752;54.270;12.470;2022-10-22T19:24:22;101876.25;;;11.00;100.00
19236;BME280;9752;54.270;12.470;2022-10-22T19:29:24;101872.06;;;11.02;100.00
19236;BME280;9752;54.270;12.470;2022-10-22T19:34:27;101891.91;;;11.35;100.00
19236;BME280;9752;54.270;12.470;2022-10-22T19:39:29;101914.16;;;11.67;100.00
19236;BME280;9752;54.270;12.470;2022-10-22T19:44:31;101938.22;;;11.88;100.00
19236;BME280;9752;54.270;12.470;2022-10-22T19:49:34;101951.47;;;12.15;100.00
19236;BME280;9752;54.270;12.470;2022-10-22T19:54:35;101968.94;;;12.41;100.00
19236;BME280;9752;54.270;12.470;2022-10-22T19:59:40;101973.44;;;12.55;100.00
19236;BME280;9752;54.270;12.470;2022-10-22T20:04:43;101994.00;;;12.64;100.00
19236;BME280;9752;54.270;12.470;2022-10-22T20:09:45;102006.22;;;12.65;100.00
19236;BME280;9752;54.270;12.470;2022-10-22T20:14:46;102010.28;;;12.61;100.00
19236;BME280;9752;54.270;12.470;2022-10-22T20:19:49;102023.84;;;12.69;100.00
19236;BME280;9752;54.270;12.470;2022-10-22T20:24:51;102037.66;;;12.80;100.00
19236;BME280;9752;54.270;12.470;2022-10-22T20:29:53;102042.81;;;12.92;100.00
19236;BME280;9752;54.270;12.470;2022-10-22T20:34:56;102054.56;;;12.98;100.00
19236;BME280;9752;54.270;12.470;2022-10-22T20:39:58;102059.31;;;13.04;100.00
19236;BME280;9752;54.270;12.470;2022-10-22T20:45:00;102065.84;;;13.11;100.00
19236;BME280;9752;54.270;12.470;2022-10-22T20:50:03;102071.16;;;13.12;100.00
19236;BME280;9752;54.270;12.470;2022-10-22T20:55:05;102073.09;;;13.15;100.00
19236;BME280;9752;54.270;12.470;2022-10-22T21:00:08;102069.69;;;13.16;100.00
19236;BME280;9752;54.270;12.470;2022-10-22T21:05:11;102068.31;;;13.21;100.00
19236;BME280;9752;54.270;12.470;2022-10-22T21:10:13;102059.22;;;13.27;100.00
19236;BME280;9752;54.270;12.470;2022-10-22T21:15:15;102065.75;;;13.46;100.00
19236;BME280;9752;54.270;12.470;2022-10-22T21:20:18;102065.88;;;13.61;100.00
19236;BME280;9752;54.270;12.470;2022-10-22T21:25:20;102066.53;;;13.70;100.00
19236;BME280;9752;54.270;12.470;2022-10-22T21:30:22;102048.97;;;13.81;100.00
19236;BME280;9752;54.270;12.470;2022-10-22T21:35:25;102038.16;;;13.88;100.00
19236;BME280;9752;54.270;12.470;2022-10-22T21:40:26;102024.94;;;13.85;100.00
19236;BME280;9752;54.270;12.470;2022-10-22T21:45:28;102013.56;;;13.84;100.00
19236;BME280;9752;54.270;12.470;2022-10-22T21:50:31;102001.25;;;13.82;100.00
19236;BME280;9752;54.270;12.470;2022-10-22T21:55:36;101977.38;;;13.76;100.00
19236;BME280;9752;54.270;12.470;2022-10-22T22:00:38;101965.72;;;13.71;100.00
19236;BME280;9752;54.270;12.470;2022-10-22T22:05:41;101951.69;;;13.69;100.00
19236;BME280;9752;54.270;12.470;2022-10-22T22:10:43;101942.75;;;13.65;100.00
19236;BME280;9752;54.270;12.470;2022-10-22T22:15:44;101930.72;;;13.67;100.00
19236;BME280;9752;54.270;12.470;2022-10-22T22:20:47;101928.72;;;13.63;100.00
19236;BME280;9752;54.270;12.470;2022-10-22T22:25:49;101930.59;;;13.52;100.00
19236;BME280;9752;54.270;12.470;2022-10-22T22:30:51;101923.50;;;13.50;100.00
19236;BME280;9752;54.270;12.470;2022-10-22T22:35:58;101924.28;;;13.48;100.00
19236;BME280;9752;54.270;12.470;2022-10-22T22:41:00;101926.69;;;13.45;100.00
19236;BME280;9752;54.270;12.470;2022-10-22T22:46:03;101927.59;;;13.46;100.00
19236;BME280;9752;54.270;12.470;2022-10-22T22:51:07;101925.00;;;13.46;100.00
19236;BME280;9752;54.270;12.470;2022-10-22T22:56:10;101918.16;;;13.48;100.00
19236;BME280;9752;54.270;12.470;2022-10-22T23:01:15;101909.25;;;13.44;100.00
19236;BME280;9752;54.270;12.470;2022-10-22T23:06:18;101900.94;;;13.50;100.00
19236;BME280;9752;54.270;12.470;2022-10-22T23:11:21;101879.28;;;13.51;100.00
19236;BME280;9752;54.270;12.470;2022-10-22T23:16:25;101881.69;;;13.48;100.00
19236;BME280;9752;54.270;12.470;2022-10-22T23:21:30;101878.78;;;13.43;100.00
19236;BME280;9752;54.270;12.470;2022-10-22T23:26:35;101865.75;;;13.43;100.00
19236;BME280;9752;54.270;12.470;2022-10-22T23:31:37;101867.16;;;13.38;100.00
19236;BME280;9752;54.270;12.470;2022-10-22T23:36:40;101857.63;;;13.39;100.00
19236;BME280;9752;54.270;12.470;2022-10-22T23:41:42;101847.59;;;13.32;100.00
19236;BME280;9752;54.270;12.470;2022-10-22T23:46:43;101845.56;;;13.27;100.00
19236;BME280;9752;54.270;12.470;2022-10-22T23:51:47;101845.66;;;13.29;100.00
19236;BME280;9752;54.270;12.470;2022-10-22T23:56:48;101846.19;;;13.37;100.00
